Time;durP1;ratioP1;P1;durP2;ratioP2;P2;SDS_P1;SDS_P2;PMS_P1;PMS_P2;Temp;Humidity;BMP_temperature;BMP_pressure;BME280_temperature;BME280_humidity;BME280_pressure;Samples;Min_cycle;Max_cycle;Signal;HPM_P1;HPM_P2
2022/08/31 00:03:59;;;;;;;2.10;1.70;;;17.10;99.90;;;;;;4136638;28;20208;-76
2022/08/31 00:06:03;;;;;;;2.40;1.70;;;17.10;99.90;;;;;;4135571;28;20236;-74
2022/08/31 00:08:05;;;;;;;2.80;1.70;;;17.10;99.90;;;;;;4137822;28;20199;-75
2022/08/31 00:10:13;;;;;;;2.00;1.67;;;17.10;99.90;;;;;;4136632;28;20259;-75
2022/08/31 00:12:15;;;;;;;1.70;1.60;;;17.10;99.90;;;;;;4127018;28;20943;-74
2022/08/31 00:14:17;;;;;;;1.77;1.60;;;17.10;99.90;;;;;;4139792;28;20212;-75
2022/08/31 00:16:19;;;;;;;1.57;1.47;;;17.10;99.90;;;;;;4138231;28;20350;-74
2022/08/31 00:18:22;;;;;;;4.37;1.87;;;17.10;99.90;;;;;;4139225;28;20303;-74
2022/08/31 00:20:26;;;;;;;1.80;1.60;;;17.10;99.90;;;;;;4123475;28;20275;-74
2022/08/31 00:22:27;;;;;;;1.73;1.60;;;17.10;99.90;;;;;;4138409;28;20795;-75
2022/08/31 00:24:30;;;;;;;1.70;1.50;;;17.10;99.90;;;;;;4140338;28;20215;-74
2022/08/31 00:26:34;;;;;;;2.87;1.70;;;17.10;99.90;;;;;;4118514;28;20233;-74
2022/08/31 00:28:36;;;;;;;1.90;1.60;;;17.10;99.90;;;;;;4134393;28;20208;-73
2022/08/31 00:30:39;;;;;;;2.30;1.73;;;17.10;99.90;;;;;;4118785;28;20209;-72
2022/08/31 00:32:41;;;;;;;2.20;1.60;;;17.10;99.90;;;;;;4137626;28;20216;-74
2022/08/31 00:34:42;;;;;;;2.00;1.60;;;17.10;99.90;;;;;;4134392;28;20212;-73
2022/08/31 00:36:46;;;;;;;1.57;1.47;;;17.10;99.90;;;;;;4137135;28;20286;-74
2022/08/31 00:38:48;;;;;;;2.50;1.70;;;17.10;99.90;;;;;;4136176;28;20252;-74
2022/08/31 00:40:50;;;;;;;1.50;1.40;;;17.10;99.90;;;;;;4136102;28;20271;-73
2022/08/31 00:42:54;;;;;;;2.07;1.47;;;17.00;99.90;;;;;;4132868;28;20701;-75
2022/08/31 00:44:56;;;;;;;2.17;1.40;;;17.10;99.90;;;;;;4135840;28;20212;-74
2022/08/31 00:46:58;;;;;;;1.77;1.57;;;17.10;99.90;;;;;;4138213;28;20263;-74
2022/08/31 00:49:04;;;;;;;1.97;1.47;;;17.00;99.90;;;;;;4122177;28;20287;-73
2022/08/31 00:51:06;;;;;;;2.07;1.50;;;17.00;99.90;;;;;;4134217;28;20204;-74
2022/08/31 00:53:08;;;;;;;1.60;1.50;;;17.00;99.90;;;;;;4136058;28;20250;-75
2022/08/31 00:55:13;;;;;;;1.70;1.50;;;17.00;99.90;;;;;;4126155;28;20262;-75
2022/08/31 00:57:16;;;;;;;1.93;1.50;;;17.00;99.90;;;;;;4134000;28;20251;-73
2022/08/31 00:59:20;;;;;;;3.27;1.57;;;17.00;99.90;;;;;;4136391;28;20223;-74
2022/08/31 01:01:23;;;;;;;1.63;1.53;;;17.00;99.90;;;;;;4135930;28;20243;-75
2022/08/31 01:03:26;;;;;;;2.07;1.90;;;17.00;99.90;;;;;;4127944;28;20224;-75
2022/08/31 01:05:29;;;;;;;1.57;1.47;;;17.00;99.90;;;;;;4127566;28;20205;-74
2022/08/31 01:07:31;;;;;;;1.80;1.70;;;17.00;99.90;;;;;;4136639;28;20212;-73
2022/08/31 01:09:36;;;;;;;2.30;1.60;;;17.00;99.90;;;;;;4138355;28;20204;-73
2022/08/31 01:11:39;;;;;;;2.20;1.80;;;17.00;99.90;;;;;;4120609;28;20205;-74
2022/08/31 01:13:43;;;;;;;2.10;1.73;;;17.00;99.90;;;;;;4138627;28;20323;-74
2022/08/31 01:15:53;;;;;;;1.77;1.60;;;17.00;99.90;;;;;;4118643;28;20709;-74
2022/08/31 01:17:58;;;;;;;2.27;1.73;;;17.00;99.90;;;;;;4138972;28;20212;-75
2022/08/31 01:20:09;;;;;;;1.60;1.50;;;17.00;99.90;;;;;;4137731;28;20208;-75
2022/08/31 01:22:22;;;;;;;2.27;1.70;;;17.00;99.90;;;;;;4138386;28;20673;-73
2022/08/31 01:24:27;;;;;;;2.07;1.50;;;17.00;99.90;;;;;;4139240;28;20291;-74
2022/08/31 01:26:31;;;;;;;1.90;1.60;;;17.00;99.90;;;;;;4127474;28;20604;-75
2022/08/31 01:28:33;;;;;;;1.80;1.40;;;17.00;99.90;;;;;;4137719;28;20208;-74
2022/08/31 01:30:36;;;;;;;2.10;1.67;;;17.00;99.90;;;;;;4139597;28;20218;-73
2022/08/31 01:32:39;;;;;;;2.17;1.67;;;17.00;99.90;;;;;;4138153;28;20243;-72
2022/08/31 01:34:42;;;;;;;1.70;1.60;;;17.00;99.90;;;;;;4140620;28;20578;-75
2022/08/31 01:36:44;;;;;;;1.90;1.80;;;16.90;99.90;;;;;;4142291;28;20235;-73
2022/08/31 01:38:47;;;;;;;2.07;1.80;;;16.90;99.90;;;;;;4142154;28;20450;-73
2022/08/31 01:40:53;;;;;;;2.17;1.60;;;17.00;99.90;;;;;;4139727;28;20231;-74
2022/08/31 01:42:55;;;;;;;2.33;1.80;;;16.90;99.90;;;;;;4138182;28;20247;-73
2022/08/31 01:44:57;;;;;;;3.33;1.43;;;16.90;99.90;;;;;;4144541;28;20213;-75
2022/08/31 01:46:59;;;;;;;2.30;1.50;;;16.90;99.90;;;;;;4141415;28;20835;-73
2022/08/31 01:49:01;;;;;;;2.07;1.70;;;16.90;99.90;;;;;;4138669;28;20660;-72
2022/08/31 01:51:03;;;;;;;2.00;1.60;;;16.90;99.90;;;;;;4136150;28;20239;-72
2022/08/31 01:53:05;;;;;;;1.90;1.60;;;16.90;99.90;;;;;;4137475;28;20270;-76
2022/08/31 01:55:08;;;;;;;2.30;1.80;;;16.90;99.90;;;;;;4117078;28;20209;-75
2022/08/31 01:57:14;;;;;;;2.33;1.80;;;16.90;99.90;;;;;;4134555;28;20231;-73
2022/08/31 01:59:19;;;;;;;2.80;1.90;;;16.90;99.90;;;;;;4126624;28;20290;-73
2022/08/31 02:01:24;;;;;;;1.87;1.70;;;16.90;99.90;;;;;;4118203;28;20239;-74
2022/08/31 02:03:26;;;;;;;2.13;1.90;;;16.90;99.90;;;;;;4136809;28;20221;-74
2022/08/31 02:05:28;;;;;;;1.97;1.60;;;16.90;99.90;;;;;;4114367;28;20774;-74
2022/08/31 02:07:30;;;;;;;1.93;1.73;;;16.90;99.90;;;;;;4135602;28;20666;-73
2022/08/31 02:09:32;;;;;;;2.47;1.67;;;16.90;99.90;;;;;;4134133;28;20243;-75
2022/08/31 02:11:34;;;;;;;1.80;1.57;;;16.80;99.90;;;;;;4126104;28;20698;-76
2022/08/31 02:13:38;;;;;;;2.03;1.70;;;16.80;99.90;;;;;;4136903;28;20885;-75
2022/08/31 02:15:40;;;;;;;1.60;1.50;;;16.80;99.90;;;;;;4135318;28;20770;-74
2022/08/31 02:17:42;;;;;;;2.27;1.80;;;16.80;99.90;;;;;;4135220;28;20302;-74
2022/08/31 02:19:44;;;;;;;1.77;1.60;;;16.80;99.90;;;;;;4138051;28;20715;-72
2022/08/31 02:21:46;;;;;;;1.40;1.30;;;16.80;99.90;;;;;;4134398;28;20726;-74
2022/08/31 02:23:47;;;;;;;2.00;1.80;;;16.80;99.90;;;;;;4136255;28;20200;-74
2022/08/31 02:25:49;;;;;;;2.23;1.80;;;16.80;99.90;;;;;;4135082;28;20612;-74
2022/08/31 02:27:51;;;;;;;2.03;1.70;;;16.80;99.90;;;;;;4117067;28;20655;-74
2022/08/31 02:29:54;;;;;;;2.73;1.50;;;16.80;99.90;;;;;;4138928;28;20235;-74
2022/08/31 02:31:57;;;;;;;2.10;1.80;;;16.70;99.90;;;;;;4140149;28;20191;-74
2022/08/31 02:33:59;;;;;;;2.30;1.50;;;16.70;99.90;;;;;;4140132;28;20204;-75
2022/08/31 02:36:01;;;;;;;3.30;1.53;;;16.70;99.90;;;;;;4135424;28;20230;-73
2022/08/31 02:38:02;;;;;;;1.90;1.70;;;16.70;99.90;;;;;;4135581;28;20261;-73
2022/08/31 02:40:07;;;;;;;1.93;1.60;;;16.70;99.90;;;;;;4136659;28;20233;-74
2022/08/31 02:42:09;;;;;;;2.50;1.90;;;16.70;99.90;;;;;;4122270;28;20288;-72
2022/08/31 02:44:11;;;;;;;2.00;1.70;;;16.70;99.90;;;;;;4127853;28;20227;-73
2022/08/31 02:46:14;;;;;;;2.10;1.90;;;16.70;99.90;;;;;;4120521;28;20347;-74
2022/08/31 02:48:16;;;;;;;3.23;1.60;;;16.70;99.90;;;;;;4140042;28;20265;-74
2022/08/31 02:50:18;;;;;;;2.30;1.80;;;16.60;99.90;;;;;;4137901;28;20210;-74
2022/08/31 02:52:20;;;;;;;1.90;1.60;;;16.60;99.90;;;;;;4136830;28;20219;-75
2022/08/31 02:54:22;;;;;;;3.00;1.87;;;16.60;99.90;;;;;;4139523;28;20243;-75
2022/08/31 02:56:24;;;;;;;2.20;1.70;;;16.60;99.90;;;;;;4141471;28;20236;-74
2022/08/31 02:58:26;;;;;;;2.13;1.73;;;16.60;99.90;;;;;;4138856;28;20310;-75
2022/08/31 03:00:28;;;;;;;2.37;1.70;;;16.60;99.90;;;;;;4123223;28;20217;-75
2022/08/31 03:02:31;;;;;;;1.90;1.70;;;16.60;99.90;;;;;;4141660;28;20208;-74
2022/08/31 03:04:33;;;;;;;1.80;1.70;;;16.50;99.90;;;;;;4138346;28;20796;-74
2022/08/31 03:06:35;;;;;;;2.03;1.77;;;16.50;99.90;;;;;;4133776;28;20235;-74
2022/08/31 03:08:38;;;;;;;2.10;1.50;;;16.60;99.90;;;;;;4118485;28;20231;-73
2022/08/31 03:10:40;;;;;;;3.00;1.77;;;16.50;99.90;;;;;;4137393;28;20219;-73
2022/08/31 03:12:42;;;;;;;2.80;1.90;;;16.50;99.90;;;;;;4138611;28;20207;-75
2022/08/31 03:14:44;;;;;;;1.70;1.57;;;16.50;99.90;;;;;;4128163;28;20303;-73
2022/08/31 03:16:46;;;;;;;2.30;1.80;;;16.50;99.90;;;;;;4137776;28;20315;-73
2022/08/31 03:18:49;;;;;;;2.07;1.70;;;16.40;99.90;;;;;;4136021;28;20974;-75
2022/08/31 03:20:51;;;;;;;2.93;1.63;;;16.40;99.90;;;;;;4138759;28;20649;-74
2022/08/31 03:22:53;;;;;;;2.13;1.60;;;16.40;99.90;;;;;;4141442;28;20951;-74
2022/08/31 03:24:55;;;;;;;1.97;1.70;;;16.40;99.90;;;;;;4140273;28;20233;-74
2022/08/31 03:26:57;;;;;;;2.00;1.70;;;16.40;99.90;;;;;;4138540;28;20231;-74
2022/08/31 03:28:59;;;;;;;2.00;1.63;;;16.40;99.90;;;;;;4139117;28;20247;-75
2022/08/31 03:31:01;;;;;;;1.80;1.53;;;16.40;99.90;;;;;;4134551;28;20250;-73
2022/08/31 03:33:03;;;;;;;2.20;1.60;;;16.40;99.90;;;;;;4138826;28;20214;-74
2022/08/31 03:35:07;;;;;;;1.70;1.60;;;16.30;99.90;;;;;;4137050;28;20293;-74
2022/08/31 03:37:09;;;;;;;2.13;1.60;;;16.30;99.90;;;;;;4138529;28;20240;-76
2022/08/31 03:39:11;;;;;;;2.80;2.00;;;16.30;99.90;;;;;;4138154;28;20659;-75
2022/08/31 03:41:15;;;;;;;2.23;1.70;;;16.30;99.90;;;;;;4133654;28;20301;-74
2022/08/31 03:43:20;;;;;;;2.03;1.83;;;16.20;99.90;;;;;;4138114;28;20215;-73
2022/08/31 03:45:22;;;;;;;3.20;2.13;;;16.20;99.90;;;;;;4138579;28;20211;-74
2022/08/31 03:47:24;;;;;;;2.37;1.77;;;16.20;99.90;;;;;;4132536;28;20264;-74
2022/08/31 03:49:26;;;;;;;2.70;1.90;;;16.20;99.90;;;;;;4136599;28;20203;-76
2022/08/31 03:51:30;;;;;;;1.73;1.53;;;16.20;99.90;;;;;;4138318;28;20208;-75
2022/08/31 03:53:31;;;;;;;2.70;1.80;;;16.10;99.90;;;;;;4136917;28;20230;-75
2022/08/31 03:55:35;;;;;;;1.73;1.57;;;16.10;99.90;;;;;;4140876;28;20206;-74
2022/08/31 03:57:38;;;;;;;1.73;1.63;;;16.10;99.90;;;;;;4127352;28;20212;-75
2022/08/31 03:59:40;;;;;;;3.33;1.80;;;16.20;99.90;;;;;;4138634;28;20215;-72
2022/08/31 04:01:41;;;;;;;2.00;1.80;;;16.10;99.90;;;;;;4138242;28;20299;-74
2022/08/31 04:03:43;;;;;;;2.10;1.80;;;16.10;99.90;;;;;;4138302;28;20264;-73
2022/08/31 04:05:45;;;;;;;2.67;2.00;;;16.10;99.90;;;;;;4138613;28;20227;-74
2022/08/31 04:07:49;;;;;;;2.27;1.83;;;16.00;99.90;;;;;;4136509;28;20211;-74
2022/08/31 04:09:50;;;;;;;2.80;1.97;;;16.10;99.90;;;;;;4121709;28;20203;-76
2022/08/31 04:11:52;;;;;;;2.63;1.80;;;16.00;99.90;;;;;;4128064;28;20230;-75
2022/08/31 04:13:55;;;;;;;2.80;2.07;;;16.00;99.90;;;;;;4138574;28;20208;-74
2022/08/31 04:15:59;;;;;;;2.70;2.30;;;16.00;99.90;;;;;;4136875;28;20222;-75
2022/08/31 04:18:01;;;;;;;3.10;1.90;;;16.00;99.90;;;;;;4138930;28;20245;-75
2022/08/31 04:20:04;;;;;;;2.60;2.10;;;16.00;99.90;;;;;;4137761;28;20231;-75
2022/08/31 04:22:06;;;;;;;2.80;2.10;;;16.00;99.90;;;;;;4143045;28;20198;-73
2022/08/31 04:24:10;;;;;;;2.27;2.07;;;16.00;99.90;;;;;;4138061;28;20249;-73
2022/08/31 04:26:16;;;;;;;2.43;2.20;;;15.90;99.90;;;;;;4136972;28;20276;-75
2022/08/31 04:28:18;;;;;;;2.50;1.87;;;15.90;99.90;;;;;;4134077;28;20636;-74
2022/08/31 04:30:20;;;;;;;2.53;2.07;;;15.90;99.90;;;;;;4138634;28;20277;-74
2022/08/31 04:32:22;;;;;;;2.43;2.23;;;15.90;99.90;;;;;;4135847;28;20211;-73
2022/08/31 04:34:25;;;;;;;2.93;2.10;;;15.90;99.90;;;;;;4135837;28;20213;-72
2022/08/31 04:36:28;;;;;;;2.30;2.03;;;15.90;99.90;;;;;;4135875;28;20230;-73
2022/08/31 04:38:31;;;;;;;2.23;2.03;;;15.80;99.90;;;;;;4135055;28;20301;-75
2022/08/31 04:40:37;;;;;;;3.63;2.13;;;15.80;99.90;;;;;;4133924;28;20262;-75
2022/08/31 04:42:39;;;;;;;2.50;1.90;;;15.80;99.90;;;;;;4134968;28;20230;-75
2022/08/31 04:44:41;;;;;;;3.03;2.20;;;15.80;99.90;;;;;;4136271;28;20260;-72
2022/08/31 04:46:43;;;;;;;2.67;2.10;;;15.80;99.90;;;;;;4134216;28;20240;-73
2022/08/31 04:48:45;;;;;;;2.63;2.10;;;15.80;99.90;;;;;;4118409;28;20220;-72
2022/08/31 04:50:49;;;;;;;4.43;2.27;;;15.80;99.90;;;;;;4117940;28;20728;-73
2022/08/31 04:52:51;;;;;;;2.73;2.07;;;15.70;99.90;;;;;;4130149;28;20212;-75
2022/08/31 04:54:53;;;;;;;4.07;2.20;;;15.70;99.90;;;;;;4138085;28;20264;-74
2022/08/31 04:56:57;;;;;;;2.50;2.00;;;15.80;99.90;;;;;;4118769;28;20314;-74
2022/08/31 04:59:01;;;;;;;2.07;1.77;;;15.70;99.90;;;;;;4135751;28;20210;-74
2022/08/31 05:01:03;;;;;;;2.33;2.07;;;15.70;99.90;;;;;;4135486;28;20310;-73
2022/08/31 05:03:05;;;;;;;2.43;2.10;;;15.70;99.90;;;;;;4140141;28;20289;-75
2022/08/31 05:05:07;;;;;;;2.67;2.13;;;15.70;99.90;;;;;;4137569;28;20210;-74
2022/08/31 05:07:09;;;;;;;3.33;2.13;;;15.70;99.90;;;;;;4136670;28;20300;-75
2022/08/31 05:09:14;;;;;;;2.93;2.20;;;15.70;99.90;;;;;;4124997;28;20302;-74
2022/08/31 05:11:18;;;;;;;2.83;2.20;;;15.70;99.90;;;;;;4124484;28;20635;-75
2022/08/31 05:13:21;;;;;;;2.07;1.80;;;15.70;99.90;;;;;;4136105;28;20211;-72
2022/08/31 05:15:23;;;;;;;4.13;2.23;;;15.70;99.90;;;;;;4138926;28;20236;-74
2022/08/31 05:17:25;;;;;;;2.80;2.13;;;15.70;99.90;;;;;;4121952;28;20955;-74
2022/08/31 05:19:27;;;;;;;2.43;2.13;;;15.70;99.90;;;;;;4140553;28;20232;-74
2022/08/31 05:21:31;;;;;;;2.80;2.03;;;15.70;99.90;;;;;;4139638;28;20211;-74
2022/08/31 05:23:33;;;;;;;3.53;1.90;;;15.70;99.90;;;;;;4119684;28;20217;-74
2022/08/31 05:25:39;;;;;;;4.93;2.50;;;15.70;99.90;;;;;;4139742;28;20222;-73
2022/08/31 05:27:41;;;;;;;3.83;2.40;;;15.70;99.90;;;;;;4136051;28;20273;-73
2022/08/31 05:29:45;;;;;;;3.13;2.40;;;15.70;99.90;;;;;;4119353;28;20223;-74
2022/08/31 05:31:47;;;;;;;2.83;2.20;;;15.70;99.90;;;;;;4137253;28;20294;-73
2022/08/31 05:33:50;;;;;;;2.70;2.20;;;15.70;99.90;;;;;;4121588;28;20891;-75
2022/08/31 05:35:51;;;;;;;4.83;3.00;;;15.70;99.90;;;;;;4136420;28;20229;-72
2022/08/31 05:37:54;;;;;;;2.77;2.40;;;15.70;99.90;;;;;;4138435;28;20265;-75
2022/08/31 05:39:56;;;;;;;2.67;2.23;;;15.70;99.90;;;;;;4135435;28;20870;-75
2022/08/31 05:41:58;;;;;;;3.73;2.60;;;15.70;99.90;;;;;;4140599;28;20242;-73
2022/08/31 05:44:02;;;;;;;2.97;2.20;;;15.70;99.90;;;;;;4136930;28;20222;-72
2022/08/31 05:46:07;;;;;;;2.87;1.97;;;15.70;99.90;;;;;;4123137;28;20804;-74
2022/08/31 05:48:09;;;;;;;3.00;2.20;;;15.70;99.90;;;;;;4134996;28;20294;-73
2022/08/31 05:50:11;;;;;;;2.50;2.20;;;15.70;99.90;;;;;;4138728;28;20242;-73
2022/08/31 05:52:13;;;;;;;3.27;2.17;;;15.80;99.90;;;;;;4136960;28;20230;-73
2022/08/31 05:54:16;;;;;;;2.67;2.03;;;15.70;99.90;;;;;;4118462;28;20655;-72
2022/08/31 05:56:19;;;;;;;2.83;2.10;;;15.70;99.90;;;;;;4136628;28;20227;-74
2022/08/31 05:58:21;;;;;;;3.20;2.20;;;15.70;99.90;;;;;;4136338;28;20206;-71
2022/08/31 06:00:24;;;;;;;2.50;1.93;;;15.70;99.90;;;;;;4116193;28;20236;-74
2022/08/31 06:02:27;;;;;;;3.37;2.27;;;15.70;99.90;;;;;;4137331;28;20305;-74
2022/08/31 06:04:29;;;;;;;3.47;2.00;;;15.70;99.90;;;;;;4121725;28;20849;-75
2022/08/31 06:06:31;;;;;;;2.70;1.93;;;15.80;99.90;;;;;;4135948;28;20774;-75
2022/08/31 06:08:34;;;;;;;2.80;2.10;;;15.80;99.90;;;;;;4137672;28;20214;-74
2022/08/31 06:10:36;;;;;;;3.27;2.10;;;15.80;99.90;;;;;;4140127;28;20200;-74
2022/08/31 06:12:38;;;;;;;2.63;2.03;;;15.80;99.90;;;;;;4138096;28;20202;-75
2022/08/31 06:14:41;;;;;;;2.10;1.90;;;15.80;99.90;;;;;;4122830;28;20238;-76
2022/08/31 06:16:44;;;;;;;2.00;1.77;;;15.80;99.90;;;;;;4139363;28;20253;-76
2022/08/31 06:18:49;;;;;;;2.40;1.87;;;15.90;99.90;;;;;;4139991;28;20226;-73
2022/08/31 06:21:01;;;;;;;2.60;2.00;;;15.90;99.90;;;;;;4122392;28;20244;-75
2022/08/31 06:23:06;;;;;;;2.20;1.73;;;15.90;99.90;;;;;;4117720;28;20204;-76
2022/08/31 06:25:09;;;;;;;3.40;2.17;;;15.90;99.90;;;;;;4126849;28;20211;-74
2022/08/31 06:27:11;;;;;;;2.97;2.20;;;15.90;99.90;;;;;;4138267;28;20325;-73
2022/08/31 06:29:13;;;;;;;3.43;2.10;;;15.90;99.90;;;;;;4138276;28;20250;-75
2022/08/31 06:31:23;;;;;;;2.27;2.00;;;16.00;99.90;;;;;;4136252;28;20258;-76
2022/08/31 06:33:26;;;;;;;2.63;1.97;;;16.00;99.90;;;;;;4138325;28;20195;-74
2022/08/31 06:35:29;;;;;;;2.43;1.90;;;16.00;99.90;;;;;;4135627;28;20207;-74
2022/08/31 06:37:32;;;;;;;2.97;2.00;;;16.00;99.90;;;;;;4137349;28;20196;-74
2022/08/31 06:41:41;;;;;;;2.30;1.70;;;16.10;99.90;;;;;;4128844;28;20704;-77
2022/08/31 06:43:44;;;;;;;2.00;1.80;;;16.20;99.90;;;;;;4135871;28;20204;-76
2022/08/31 06:45:46;;;;;;;1.80;1.70;;;16.20;99.90;;;;;;4138194;28;20431;-77
2022/08/31 06:47:48;;;;;;;2.47;1.90;;;16.30;99.90;;;;;;4138203;28;20287;-78
2022/08/31 06:49:50;;;;;;;2.67;1.80;;;16.30;99.90;;;;;;4120636;28;20232;-77
2022/08/31 06:51:53;;;;;;;1.90;1.70;;;16.40;99.90;;;;;;4132790;28;20233;-77
2022/08/31 06:53:55;;;;;;;2.13;1.70;;;16.40;99.90;;;;;;4139668;28;20583;-79
2022/08/31 06:55:57;;;;;;;1.97;1.60;;;16.50;99.90;;;;;;4143122;28;20473;-79
2022/08/31 06:57:59;;;;;;;3.27;1.80;;;16.50;99.90;;;;;;4135341;28;20291;-79
2022/08/31 07:00:01;;;;;;;2.23;1.70;;;16.60;99.90;;;;;;4132437;28;20236;-79
2022/08/31 07:02:03;;;;;;;2.57;1.50;;;16.60;99.90;;;;;;4138134;28;20231;-79
2022/08/31 07:04:07;;;;;;;2.23;1.80;;;16.70;99.90;;;;;;4120311;28;20793;-79
2022/08/31 07:06:12;;;;;;;2.17;1.70;;;16.70;99.90;;;;;;4136746;28;20286;-79
2022/08/31 07:08:15;;;;;;;3.67;1.63;;;16.70;99.90;;;;;;4137781;28;20211;-81
2022/08/31 07:10:18;;;;;;;2.70;1.83;;;16.80;99.90;;;;;;4140873;28;20299;-79
2022/08/31 07:12:20;;;;;;;2.40;1.87;;;16.80;99.90;;;;;;4141248;28;20204;-80
2022/08/31 07:14:24;;;;;;;2.40;1.73;;;16.80;99.90;;;;;;4141993;28;20204;-80
2022/08/31 07:16:28;;;;;;;2.20;1.37;;;16.90;99.90;;;;;;4131328;28;20236;-80
2022/08/31 07:18:29;;;;;;;2.07;1.50;;;17.00;99.90;;;;;;4144459;28;20235;-79
2022/08/31 07:20:31;;;;;;;1.80;1.60;;;17.00;99.90;;;;;;4146540;28;20295;-79
2022/08/31 07:22:33;;;;;;;1.73;1.53;;;17.00;99.90;;;;;;4151113;28;20212;-79
2022/08/31 07:24:37;;;;;;;2.10;1.60;;;17.10;99.90;;;;;;4150833;28;20212;-79
2022/08/31 07:26:42;;;;;;;2.53;1.47;;;17.10;99.90;;;;;;4140784;28;20243;-79
2022/08/31 07:28:44;;;;;;;1.60;1.50;;;17.20;99.90;;;;;;4141658;28;20213;-79
2022/08/31 07:30:48;;;;;;;2.23;1.60;;;17.20;99.90;;;;;;4142954;28;20219;-79
2022/08/31 07:32:50;;;;;;;1.97;1.60;;;17.30;99.90;;;;;;4146648;28;20302;-79
2022/08/31 07:34:52;;;;;;;1.80;1.50;;;17.30;99.90;;;;;;4134218;28;20543;-79
2022/08/31 07:43:58;;;;;;;1.83;1.60;;;17.50;99.90;;;;;;4122878;28;20225;-79
2022/08/31 07:46:00;;;;;;;1.60;1.50;;;17.60;99.90;;;;;;4144041;28;20245;-79
2022/08/31 07:48:02;;;;;;;2.13;1.57;;;17.60;99.90;;;;;;4138644;28;20213;-78
2022/08/31 07:50:04;;;;;;;2.30;1.70;;;17.70;99.90;;;;;;4121270;28;20236;-78
2022/08/31 07:52:07;;;;;;;3.13;1.70;;;17.70;99.90;;;;;;4130574;28;20612;-78
2022/08/31 07:54:10;;;;;;;2.00;1.40;;;17.80;99.90;;;;;;4140513;28;20291;-79
2022/08/31 07:56:11;;;;;;;2.90;1.53;;;17.80;99.90;;;;;;4144595;28;20210;-78
2022/08/31 07:58:16;;;;;;;2.37;1.67;;;17.90;99.90;;;;;;4141725;28;20234;-78
2022/08/31 08:00:20;;;;;;;1.60;1.50;;;17.90;99.90;;;;;;4142251;28;20585;-79
2022/08/31 08:02:22;;;;;;;2.00;1.50;;;18.00;99.90;;;;;;4139690;28;20224;-76
2022/08/31 08:04:25;;;;;;;2.07;1.63;;;18.00;99.90;;;;;;4141276;28;20209;-77
2022/08/31 08:06:27;;;;;;;2.03;1.73;;;18.10;99.90;;;;;;4139695;28;20760;-78
2022/08/31 08:08:29;;;;;;;3.63;1.60;;;18.10;99.90;;;;;;4140508;28;20205;-77
2022/08/31 08:10:32;;;;;;;2.73;1.80;;;18.20;99.90;;;;;;4140915;28;20309;-77
2022/08/31 08:12:35;;;;;;;1.93;1.20;;;18.20;99.90;;;;;;4139143;28;20620;-78
2022/08/31 08:14:40;;;;;;;2.07;1.40;;;18.30;99.90;;;;;;4139265;28;20209;-78
2022/08/31 08:16:41;;;;;;;1.83;1.57;;;18.30;99.90;;;;;;4141382;28;20212;-78
2022/08/31 08:18:43;;;;;;;1.70;1.50;;;18.50;99.90;;;;;;4140381;28;20230;-78
2022/08/31 08:20:46;;;;;;;1.77;1.47;;;18.50;99.90;;;;;;4138401;28;20237;-77
2022/08/31 08:22:48;;;;;;;1.80;1.30;;;18.60;99.90;;;;;;4141073;28;20293;-77
2022/08/31 08:24:50;;;;;;;2.10;1.70;;;18.70;99.90;;;;;;4139460;28;20203;-78
2022/08/31 08:26:52;;;;;;;2.13;1.47;;;18.70;99.90;;;;;;4141334;28;20294;-78
2022/08/31 08:28:54;;;;;;;2.53;1.53;;;18.80;99.90;;;;;;4140361;28;20690;-78
2022/08/31 08:31:00;;;;;;;2.40;1.63;;;18.90;99.90;;;;;;4137190;28;20259;-78
2022/08/31 08:33:02;;;;;;;2.17;1.53;;;19.00;99.90;;;;;;4139685;28;20207;-78
2022/08/31 08:35:05;;;;;;;1.97;1.60;;;19.10;99.90;;;;;;4144504;28;20239;-79
2022/08/31 08:37:07;;;;;;;2.33;1.60;;;19.10;99.90;;;;;;4139489;28;20215;-78
2022/08/31 08:39:10;;;;;;;2.53;1.37;;;19.20;99.90;;;;;;4139620;28;20295;-78
2022/08/31 08:41:15;;;;;;;1.93;1.60;;;19.20;99.90;;;;;;4139192;28;20235;-78
2022/08/31 08:43:20;;;;;;;3.53;1.57;;;19.30;99.90;;;;;;4136228;28;20207;-78
2022/08/31 08:45:22;;;;;;;2.43;1.60;;;19.30;99.90;;;;;;4121226;28;20580;-78
2022/08/31 08:47:31;;;;;;;1.50;1.30;;;19.40;99.90;;;;;;4137243;28;20459;-78
2022/08/31 08:49:39;;;;;;;2.53;1.60;;;19.40;99.90;;;;;;4137786;28;20210;-78
2022/08/31 08:51:41;;;;;;;1.70;1.30;;;19.40;99.90;;;;;;4138054;28;20235;-78
2022/08/31 08:53:45;;;;;;;1.90;1.57;;;19.50;99.90;;;;;;4138754;28;20671;-78
2022/08/31 08:55:47;;;;;;;1.83;1.30;;;19.50;99.90;;;;;;4139338;28;20326;-78
2022/08/31 08:57:50;;;;;;;2.43;1.40;;;19.50;99.90;;;;;;4123502;28;20212;-78
2022/08/31 08:59:56;;;;;;;1.47;1.37;;;19.50;99.90;;;;;;4120019;28;20215;-78
2022/08/31 09:02:05;;;;;;;1.57;1.40;;;19.50;99.90;;;;;;4117556;28;20501;-78
2022/08/31 09:04:18;;;;;;;1.73;1.50;;;19.60;99.90;;;;;;4138995;28;20234;-78
2022/08/31 09:06:32;;;;;;;1.57;1.40;;;19.70;99.90;;;;;;4119545;28;20612;-78
2022/08/31 09:09:07;;;;;;;2.00;1.37;;;19.70;99.90;;;;;;4136979;28;20698;-78
2022/08/31 09:11:17;;;;;;;2.27;1.37;;;19.80;99.90;;;;;;4137201;28;20256;-78
2022/08/31 09:13:29;;;;;;;2.03;1.13;;;19.90;99.90;;;;;;4137258;28;20207;-78
2022/08/31 09:15:48;;;;;;;1.60;1.30;;;20.00;99.90;;;;;;4137356;28;20208;-78
2022/08/31 09:17:59;;;;;;;1.97;1.60;;;20.10;99.90;;;;;;4134344;28;20219;-78
2022/08/31 09:20:03;;;;;;;2.73;1.40;;;20.10;99.90;;;;;;4140108;28;20312;-78
2022/08/31 09:22:06;;;;;;;1.77;1.40;;;20.20;99.90;;;;;;4137900;28;20315;-78
2022/08/31 09:24:11;;;;;;;2.73;1.40;;;20.30;99.90;;;;;;4138708;28;20236;-78
2022/08/31 09:26:17;;;;;;;3.60;1.33;;;20.40;99.90;;;;;;4135920;28;20230;-78
2022/08/31 09:28:33;;;;;;;1.40;1.30;;;20.50;99.90;;;;;;4133199;28;20323;-78
2022/08/31 09:30:50;;;;;;;2.50;1.40;;;20.50;99.90;;;;;;4126839;28;20286;-78
2022/08/31 09:32:57;;;;;;;1.83;1.20;;;20.60;99.90;;;;;;4127264;28;20681;-77
2022/08/31 09:35:02;;;;;;;1.63;1.17;;;20.70;99.90;;;;;;4127405;28;20323;-76
2022/08/31 09:37:16;;;;;;;1.70;1.20;;;20.80;99.90;;;;;;4134455;28;20598;-77
2022/08/31 09:39:21;;;;;;;1.77;1.30;;;20.80;99.90;;;;;;4136425;28;20201;-78
2022/08/31 09:41:32;;;;;;;2.80;1.30;;;20.90;99.90;;;;;;4133511;28;20230;-78
2022/08/31 09:43:37;;;;;;;1.67;1.20;;;21.00;99.90;;;;;;4136187;28;20212;-78
2022/08/31 09:45:56;;;;;;;1.40;1.17;;;21.10;99.90;;;;;;4120595;28;20683;-78
2022/08/31 09:48:00;;;;;;;1.27;1.00;;;21.10;99.90;;;;;;4119478;28;20469;-78
2022/08/31 09:50:09;;;;;;;1.50;1.20;;;21.20;99.90;;;;;;4136546;28;20299;-78
2022/08/31 09:55:11;;;;;;;1.63;1.33;;;21.30;99.00;;;;;;4126109;28;20667;-78
2022/08/31 09:57:14;;;;;;;1.10;1.00;;;21.40;97.80;;;;;;4121273;28;20214;-78
2022/08/31 09:59:30;;;;;;;1.77;1.10;;;21.50;96.90;;;;;;4121909;28;20202;-78
2022/08/31 10:01:43;;;;;;;1.67;1.10;;;21.50;96.30;;;;;;4125982;28;20224;-77
2022/08/31 10:03:46;;;;;;;3.57;1.40;;;21.60;95.70;;;;;;4135748;28;20295;-79
2022/08/31 10:05:53;;;;;;;1.50;1.20;;;21.60;94.90;;;;;;4140147;28;20210;-76
2022/08/31 10:08:03;;;;;;;1.23;1.10;;;21.70;94.10;;;;;;4119625;28;20809;-77
2022/08/31 10:10:09;;;;;;;1.20;1.03;;;21.80;93.60;;;;;;4137709;28;20225;-78
2022/08/31 10:12:18;;;;;;;1.03;0.90;;;21.80;92.00;;;;;;4118807;28;20212;-77
2022/08/31 10:14:27;;;;;;;2.70;1.23;;;21.90;91.40;;;;;;4136494;28;20300;-77
2022/08/31 10:16:35;;;;;;;1.83;1.17;;;21.90;90.00;;;;;;4134778;28;20247;-77
2022/08/31 10:18:46;;;;;;;1.93;1.20;;;22.00;88.50;;;;;;4137539;28;20229;-77
2022/08/31 10:20:55;;;;;;;2.07;1.27;;;22.00;87.60;;;;;;4137399;28;20336;-77
2022/08/31 10:23:07;;;;;;;1.10;1.00;;;22.10;86.00;;;;;;4140727;28;20216;-78
2022/08/31 10:25:21;;;;;;;2.03;1.00;;;22.20;83.40;;;;;;4139243;28;20286;-76
2022/08/31 10:27:31;;;;;;;2.00;1.20;;;22.20;79.10;;;;;;4136003;28;20235;-77
2022/08/31 10:29:38;;;;;;;1.20;1.10;;;22.30;79.30;;;;;;4135534;28;20217;-77
2022/08/31 10:31:45;;;;;;;2.50;1.03;;;22.30;79.10;;;;;;4137254;28;20560;-77
2022/08/31 10:36:16;;;;;;;3.43;1.10;;;22.50;77.70;;;;;;4117160;28;20219;-77
2022/08/31 10:38:26;;;;;;;1.63;1.10;;;22.60;75.70;;;;;;4119783;28;20210;-78
2022/08/31 10:40:31;;;;;;;2.07;1.20;;;22.60;76.20;;;;;;4141636;28;20225;-77
2022/08/31 10:42:37;;;;;;;1.63;1.03;;;22.70;75.00;;;;;;4137745;28;20636;-77
2022/08/31 10:44:51;;;;;;;1.60;1.07;;;22.80;74.60;;;;;;4138290;28;20234;-78
2022/08/31 10:46:57;;;;;;;1.73;1.30;;;22.90;71.20;;;;;;4140525;28;20417;-76
2022/08/31 10:49:00;;;;;;;1.77;1.20;;;22.90;69.50;;;;;;4133401;28;20520;-75
2022/08/31 10:51:21;;;;;;;1.33;1.07;;;23.00;69.80;;;;;;4136721;28;20262;-76
2022/08/31 10:53:32;;;;;;;1.53;1.10;;;23.10;68.70;;;;;;4138173;28;20751;-77
2022/08/31 10:55:45;;;;;;;1.90;1.23;;;23.20;67.60;;;;;;4141789;28;20210;-76
2022/08/31 10:57:50;;;;;;;2.10;1.20;;;23.30;67.90;;;;;;4122680;28;20242;-76
2022/08/31 10:59:59;;;;;;;1.73;1.20;;;23.40;66.70;;;;;;4140001;28;20199;-76
2022/08/31 11:02:24;;;;;;;2.37;1.17;;;23.60;65.30;;;;;;4139661;28;20211;-75
2022/08/31 11:04:48;;;;;;;1.30;1.10;;;23.70;63.80;;;;;;4139508;28;20290;-77